createdAt,value
2018-05-31T00:00:30.821Z,0
2018-05-31T00:01:30.569Z,0
2018-05-31T00:02:30.596Z,0
2018-05-31T00:03:30.886Z,0
2018-05-31T00:04:31.248Z,0
2018-05-31T00:05:30.118Z,0
2018-05-31T00:06:30.725Z,0
2018-05-31T00:07:30.750Z,0
2018-05-31T00:08:30.772Z,0
2018-05-31T00:09:31.268Z,0
2018-05-31T00:10:31.091Z,0
2018-05-31T00:11:31.081Z,0
2018-05-31T00:12:31.146Z,0
2018-05-31T00:13:31.638Z,0
2018-05-31T00:14:31.649Z,0
2018-05-31T00:15:30.904Z,0
2018-05-31T00:16:30.985Z,0
2018-05-31T00:17:31.000Z,0
2018-05-31T00:18:30.729Z,0
2018-05-31T00:19:31.180Z,0
2018-05-31T00:20:31.374Z,0
2018-05-31T00:21:31.371Z,0
2018-05-31T00:22:31.594Z,0
2018-05-31T00:23:32.167Z,0
2018-05-31T00:24:31.172Z,0
2018-05-31T00:25:31.442Z,0
2018-05-31T00:26:31.518Z,0
2018-05-31T00:27:30.952Z,0
2018-05-31T00:28:31.003Z,0
2018-05-31T00:29:31.302Z,0
2018-05-31T00:30:31.587Z,0
2018-05-31T00:31:31.584Z,0
2018-05-31T00:32:32.466Z,0
2018-05-31T00:33:31.408Z,0
2018-05-31T00:34:31.455Z,0
2018-05-31T00:35:31.481Z,0
2018-05-31T00:36:31.437Z,0
2018-05-31T00:37:31.496Z,0
2018-05-31T00:38:31.812Z,0
2018-05-31T00:39:32.013Z,0
2018-05-31T00:40:31.584Z,0
2018-05-31T00:41:32.548Z,0
2018-05-31T00:42:31.631Z,0
2018-05-31T00:43:31.660Z,0
2018-05-31T00:44:31.694Z,0
2018-05-31T00:45:31.970Z,0
2018-05-31T00:46:31.450Z,0
2018-05-31T00:47:31.761Z,0
2018-05-31T00:48:31.805Z,0
2018-05-31T00:49:31.801Z,0
2018-05-31T00:50:33.098Z,0
2018-05-31T00:51:32.703Z,0
2018-05-31T00:52:32.193Z,0
2018-05-31T00:53:31.880Z,0
2018-05-31T00:54:31.656Z,0
2018-05-31T00:55:32.263Z,0
2018-05-31T00:56:32.021Z,0
2018-05-31T00:57:32.277Z,0
2018-05-31T00:58:32.031Z,0
2018-05-31T00:59:32.529Z,0
2018-05-31T01:00:32.901Z,0
2018-05-31T01:01:32.423Z,0
2018-05-31T01:02:32.446Z,0
2018-05-31T01:03:32.475Z,0
2018-05-31T01:04:32.510Z,0
2018-05-31T01:05:32.513Z,0
2018-05-31T01:06:32.533Z,0
2018-05-31T01:07:32.305Z,0
2018-05-31T01:08:32.941Z,0
2018-05-31T01:09:32.864Z,0
2018-05-31T01:10:32.630Z,0
2018-05-31T01:11:32.355Z,0
2018-05-31T01:12:32.675Z,0
2018-05-31T01:13:32.698Z,0
2018-05-31T01:14:32.437Z,0
2018-05-31T01:15:32.467Z,0
2018-05-31T01:16:32.790Z,0
2018-05-31T01:17:32.823Z,0
2018-05-31T01:18:33.659Z,0
2018-05-31T01:19:32.284Z,0
2018-05-31T01:20:32.883Z,0
2018-05-31T01:21:32.940Z,0
2018-05-31T01:22:32.904Z,0
2018-05-31T01:23:32.658Z,0
2018-05-31T01:24:32.691Z,0
2018-05-31T01:25:32.754Z,0
2018-05-31T01:26:33.017Z,0
2018-05-31T01:27:33.662Z,0
2018-05-31T01:28:32.515Z,0
2018-05-31T01:29:32.820Z,0
2018-05-31T01:30:32.853Z,0
2018-05-31T01:31:32.886Z,0
2018-05-31T01:32:33.181Z,0
2018-05-31T01:33:32.965Z,0
2018-05-31T01:34:33.211Z,0
2018-05-31T01:35:32.707Z,0
2018-05-31T01:36:32.450Z,0
2018-05-31T01:37:32.749Z,0
2018-05-31T01:38:33.063Z,0
2018-05-31T01:39:33.362Z,0
2018-05-31T01:40:33.378Z,0
2018-05-31T01:41:32.581Z,0
2018-05-31T01:42:33.186Z,0
2018-05-31T01:43:33.485Z,0
2018-05-31T01:44:33.218Z,0
2018-05-31T01:45:33.695Z,0
2018-05-31T01:46:33.262Z,0
2018-05-31T01:47:33.572Z,0
2018-05-31T01:48:33.621Z,0
2018-05-31T01:49:33.659Z,0
2018-05-31T01:50:33.623Z,0
2018-05-31T01:51:33.689Z,0
2018-05-31T01:52:33.688Z,0
2018-05-31T01:53:33.453Z,0
2018-05-31T01:54:33.577Z,0
2018-05-31T01:55:34.807Z,0
2018-05-31T01:56:33.795Z,0
2018-05-31T01:57:33.870Z,0
2018-05-31T01:58:33.572Z,0
2018-05-31T01:59:33.289Z,0
2018-05-31T02:00:33.583Z,0
2018-05-31T02:01:33.643Z,0
2018-05-31T02:02:33.964Z,0
2018-05-31T02:03:33.981Z,0
2018-05-31T02:04:34.735Z,0
2018-05-31T02:05:33.711Z,0
2018-05-31T02:06:33.764Z,0
2018-05-31T02:07:33.781Z,0
2018-05-31T02:08:33.515Z,0
2018-05-31T02:09:33.810Z,0
2018-05-31T02:10:34.250Z,0
2018-05-31T02:11:33.608Z,0
2018-05-31T02:12:34.203Z,0
2018-05-31T02:13:34.842Z,0
2018-05-31T02:14:34.024Z,0
2018-05-31T02:15:33.712Z,0
2018-05-31T02:16:34.022Z,0
2018-05-31T02:17:34.296Z,0
2018-05-31T02:18:33.764Z,0
2018-05-31T02:19:33.806Z,0
2018-05-31T02:20:34.113Z,0
2018-05-31T02:21:34.416Z,0
2018-05-31T02:22:34.889Z,0
2018-05-31T02:23:33.906Z,0
2018-05-31T02:24:34.225Z,0
2018-05-31T02:25:34.705Z,0
2018-05-31T02:26:34.542Z,0
2018-05-31T02:27:34.548Z,0
2018-05-31T02:28:34.590Z,0
2018-05-31T02:29:34.641Z,0
2018-05-31T02:30:34.367Z,0
2018-05-31T02:31:34.580Z,0
2018-05-31T02:32:34.382Z,0
2018-05-31T02:33:34.690Z,0
2018-05-31T02:34:34.741Z,0
2018-05-31T02:35:34.755Z,0
2018-05-31T02:36:34.481Z,4
2018-05-31T02:37:34.838Z,4
2018-05-31T02:38:34.818Z,4
2018-05-31T02:39:34.596Z,0
2018-05-31T02:40:35.744Z,0
2018-05-31T02:41:34.625Z,4
2018-05-31T02:42:34.684Z,4
2018-05-31T02:43:34.101Z,4
2018-05-31T02:44:34.692Z,4
2018-05-31T02:45:35.014Z,4
2018-05-31T02:46:35.022Z,4
2018-05-31T02:47:34.777Z,8
2018-05-31T02:48:35.064Z,4
2018-05-31T02:49:34.872Z,8
2018-05-31T02:50:35.612Z,8
2018-05-31T02:51:34.859Z,8
2018-05-31T02:52:35.199Z,8
2018-05-31T02:53:34.620Z,12
2018-05-31T02:54:34.959Z,12
2018-05-31T02:55:35.248Z,12
2018-05-31T02:56:34.996Z,12
2018-05-31T02:57:35.013Z,16
2018-05-31T02:58:35.650Z,16
2018-05-31T02:59:35.688Z,20
2018-05-31T03:00:35.086Z,20
2018-05-31T03:01:35.158Z,20
2018-05-31T03:02:34.870Z,20
2018-05-31T03:03:35.480Z,24
2018-05-31T03:04:35.816Z,28
2018-05-31T03:05:35.521Z,28
2018-05-31T03:06:35.260Z,32
2018-05-31T03:07:35.760Z,36
2018-05-31T03:08:36.251Z,40
2018-05-31T03:09:35.599Z,40
2018-05-31T03:10:35.341Z,44
2018-05-31T03:11:35.692Z,44
2018-05-31T03:12:35.390Z,48
2018-05-31T03:13:35.692Z,52
2018-05-31T03:14:35.696Z,56
2018-05-31T03:15:35.779Z,60
2018-05-31T03:16:35.917Z,64
2018-05-31T03:17:36.207Z,68
2018-05-31T03:18:35.839Z,76
2018-05-31T03:19:35.849Z,84
2018-05-31T03:20:35.870Z,88
2018-05-31T03:21:35.895Z,100
2018-05-31T03:22:35.608Z,108
2018-05-31T03:23:35.936Z,116
2018-05-31T03:24:35.984Z,128
2018-05-31T03:25:36.307Z,140
2018-05-31T03:26:37.105Z,152
2018-05-31T03:27:35.495Z,164
2018-05-31T03:28:36.095Z,176
2018-05-31T03:29:35.823Z,192
2018-05-31T03:30:35.828Z,200
2018-05-31T03:31:35.578Z,212
2018-05-31T03:32:35.606Z,228
2018-05-31T03:33:35.922Z,236
2018-05-31T03:34:35.894Z,248
2018-05-31T03:35:36.509Z,260
2018-05-31T03:36:35.976Z,264
2018-05-31T03:37:36.300Z,272
2018-05-31T03:38:36.330Z,272
2018-05-31T03:39:35.761Z,268
2018-05-31T03:40:36.048Z,268
2018-05-31T03:41:36.407Z,268
2018-05-31T03:42:36.428Z,264
2018-05-31T03:43:36.542Z,264
2018-05-31T03:44:37.012Z,268
2018-05-31T03:45:36.205Z,264
2018-05-31T03:46:36.208Z,268
2018-05-31T03:47:36.597Z,268
2018-05-31T03:48:36.519Z,268
2018-05-31T03:49:36.303Z,272
2018-05-31T03:50:36.636Z,276
2018-05-31T03:51:36.647Z,276
2018-05-31T03:52:36.347Z,280
2018-05-31T03:53:36.779Z,284
2018-05-31T03:54:36.715Z,288
2018-05-31T03:55:36.194Z,292
2018-05-31T03:56:36.743Z,296
2018-05-31T03:57:36.799Z,304
2018-05-31T03:58:35.940Z,312
2018-05-31T03:59:36.896Z,320
2018-05-31T04:00:36.862Z,328
2018-05-31T04:01:37.622Z,336
2018-05-31T04:02:36.590Z,344
2018-05-31T04:03:36.924Z,356
2018-05-31T04:04:36.671Z,364
2018-05-31T04:05:36.983Z,372
2018-05-31T04:06:36.728Z,384
2018-05-31T04:07:36.717Z,400
2018-05-31T04:08:37.030Z,408
2018-05-31T04:09:36.783Z,424
2018-05-31T04:10:37.208Z,440
2018-05-31T04:11:38.279Z,448
2018-05-31T04:12:36.565Z,460
2018-05-31T04:13:37.151Z,472
2018-05-31T04:14:36.866Z,480
2018-05-31T04:15:37.213Z,488
2018-05-31T04:16:37.213Z,488
2018-05-31T04:17:37.260Z,492
2018-05-31T04:18:36.698Z,488
2018-05-31T04:19:37.754Z,488
2018-05-31T04:20:38.533Z,484
2018-05-31T04:21:37.341Z,476
2018-05-31T04:22:37.113Z,472
2018-05-31T04:23:37.417Z,460
2018-05-31T04:24:37.138Z,452
2018-05-31T04:25:36.886Z,440
2018-05-31T04:26:36.942Z,428
2018-05-31T04:27:37.471Z,420
2018-05-31T04:28:37.385Z,412
2018-05-31T04:29:37.870Z,396
2018-05-31T04:30:37.291Z,388
2018-05-31T04:31:37.631Z,380
2018-05-31T04:32:37.628Z,376
2018-05-31T04:33:37.811Z,372
2018-05-31T04:34:37.653Z,364
2018-05-31T04:35:37.694Z,360
2018-05-31T04:36:37.692Z,356
2018-05-31T04:37:38.115Z,356
2018-05-31T04:38:38.828Z,352
2018-05-31T04:39:37.807Z,352
2018-05-31T04:40:37.809Z,352
2018-05-31T04:41:37.841Z,348
2018-05-31T04:42:37.720Z,352
2018-05-31T04:43:37.937Z,348
2018-05-31T04:44:37.896Z,344
2018-05-31T04:45:37.917Z,344
2018-05-31T04:46:38.477Z,344
2018-05-31T04:47:38.981Z,336
2018-05-31T04:48:37.722Z,336
2018-05-31T04:49:37.703Z,332
2018-05-31T04:50:37.764Z,328
2018-05-31T04:51:37.521Z,320
2018-05-31T04:52:38.089Z,308
2018-05-31T04:53:37.964Z,304
2018-05-31T04:54:37.597Z,296
2018-05-31T04:55:38.540Z,284
2018-05-31T04:56:39.049Z,280
2018-05-31T04:57:38.265Z,268
2018-05-31T04:58:38.289Z,260
2018-05-31T04:59:37.696Z,256
2018-05-31T05:00:37.998Z,248
2018-05-31T05:01:37.763Z,244
2018-05-31T05:02:38.050Z,240
2018-05-31T05:03:38.332Z,240
2018-05-31T05:04:38.736Z,240
2018-05-31T05:05:39.371Z,236
2018-05-31T05:06:38.464Z,240
2018-05-31T05:07:38.513Z,248
2018-05-31T05:08:38.456Z,248
2018-05-31T05:09:38.501Z,252
2018-05-31T05:10:38.238Z,256
2018-05-31T05:11:38.540Z,256
2018-05-31T05:12:38.575Z,260
2018-05-31T05:13:38.896Z,260
2018-05-31T05:14:39.404Z,268
2018-05-31T05:15:38.357Z,268
2018-05-31T05:16:38.664Z,276
2018-05-31T05:17:38.709Z,276
2018-05-31T05:18:38.720Z,280
2018-05-31T05:19:38.173Z,288
2018-05-31T05:20:38.480Z,296
2018-05-31T05:21:38.523Z,300
2018-05-31T05:22:38.533Z,304
2018-05-31T05:23:39.766Z,308
2018-05-31T05:24:38.896Z,304
2018-05-31T05:25:38.343Z,300
2018-05-31T05:26:38.447Z,300
2018-05-31T05:27:38.934Z,308
2018-05-31T05:28:38.931Z,320
2018-05-31T05:29:38.418Z,332
2018-05-31T05:30:38.997Z,340
2018-05-31T05:31:39.450Z,340
2018-05-31T05:32:40.112Z,344
2018-05-31T05:33:39.087Z,344
2018-05-31T05:34:39.093Z,352
2018-05-31T05:35:38.864Z,360
2018-05-31T05:36:39.158Z,364
2018-05-31T05:37:39.189Z,364
2018-05-31T05:38:39.191Z,372
2018-05-31T05:39:38.960Z,372
2018-05-31T05:40:39.345Z,380
2018-05-31T05:41:39.980Z,384
2018-05-31T05:42:38.480Z,388
2018-05-31T05:43:39.134Z,392
2018-05-31T05:44:39.068Z,400
2018-05-31T05:45:38.797Z,404
2018-05-31T05:46:39.387Z,404
2018-05-31T05:47:39.142Z,408
2018-05-31T05:48:38.923Z,412
2018-05-31T05:49:39.215Z,412
2018-05-31T05:50:40.071Z,416
2018-05-31T05:51:39.228Z,416
2018-05-31T05:52:39.254Z,416
2018-05-31T05:53:39.280Z,416
2018-05-31T05:54:39.636Z,416
2018-05-31T05:55:39.656Z,416
2018-05-31T05:56:39.201Z,420
2018-05-31T05:57:39.694Z,420
2018-05-31T05:58:40.062Z,416
2018-05-31T05:59:40.357Z,420
2018-05-31T06:00:39.789Z,420
2018-05-31T06:01:39.784Z,420
2018-05-31T06:02:39.776Z,424
2018-05-31T06:03:39.528Z,424
2018-05-31T06:04:39.277Z,424
2018-05-31T06:05:39.844Z,424
2018-05-31T06:06:39.876Z,424
2018-05-31T06:07:40.617Z,424
2018-05-31T06:08:39.661Z,424
2018-05-31T06:09:39.936Z,424
2018-05-31T06:10:39.707Z,424
2018-05-31T06:11:40.009Z,424
2018-05-31T06:12:39.767Z,424
2018-05-31T06:13:39.798Z,428
2018-05-31T06:14:40.031Z,428
2018-05-31T06:15:40.420Z,432
2018-05-31T06:16:41.282Z,436
2018-05-31T06:17:39.894Z,436
2018-05-31T06:18:39.936Z,440
2018-05-31T06:19:40.229Z,436
2018-05-31T06:20:39.958Z,436
2018-05-31T06:21:40.249Z,440
2018-05-31T06:22:39.702Z,440
2018-05-31T06:23:40.069Z,444
2018-05-31T06:24:40.603Z,448
2018-05-31T06:25:41.390Z,452
2018-05-31T06:26:40.179Z,452
2018-05-31T06:27:40.119Z,456
2018-05-31T06:28:40.118Z,456
2018-05-31T06:29:40.462Z,460
2018-05-31T06:30:40.859Z,460
2018-05-31T06:31:40.464Z,460
2018-05-31T06:32:40.218Z,460
2018-05-31T06:33:40.801Z,464
2018-05-31T06:34:40.259Z,468
2018-05-31T06:35:40.297Z,472
2018-05-31T06:36:40.043Z,476
2018-05-31T06:37:40.323Z,476
2018-05-31T06:38:40.355Z,484
2018-05-31T06:39:40.642Z,488
2018-05-31T06:40:40.679Z,496
2018-05-31T06:41:40.428Z,496
2018-05-31T06:42:40.727Z,500
2018-05-31T06:43:40.788Z,504
2018-05-31T06:44:40.767Z,504
2018-05-31T06:45:40.265Z,508
2018-05-31T06:46:40.547Z,512
2018-05-31T06:47:40.849Z,512
2018-05-31T06:48:40.900Z,520
2018-05-31T06:49:40.625Z,516
2018-05-31T06:50:40.942Z,516
2018-05-31T06:51:40.943Z,516
2018-05-31T06:52:40.986Z,516
2018-05-31T06:53:40.719Z,516
2018-05-31T06:54:40.495Z,520
2018-05-31T06:55:40.782Z,520
2018-05-31T06:56:41.070Z,524
2018-05-31T06:57:41.066Z,528
2018-05-31T06:58:41.125Z,532
2018-05-31T06:59:41.128Z,532
2018-05-31T07:00:40.909Z,532
2018-05-31T07:01:40.920Z,532
2018-05-31T07:02:41.217Z,532
2018-05-31T07:03:40.981Z,536
2018-05-31T07:04:40.993Z,536
2018-05-31T07:05:41.264Z,540
2018-05-31T07:06:41.316Z,540
2018-05-31T07:07:41.078Z,544
2018-05-31T07:08:41.076Z,548
2018-05-31T07:09:41.088Z,548
2018-05-31T07:10:41.410Z,552
2018-05-31T07:11:41.442Z,548
2018-05-31T07:12:41.478Z,548
2018-05-31T07:13:41.470Z,552
2018-05-31T07:14:40.956Z,552
2018-05-31T07:15:41.532Z,556
2018-05-31T07:16:41.542Z,560
2018-05-31T07:17:41.578Z,552
2018-05-31T07:18:41.598Z,556
2018-05-31T07:19:41.363Z,560
2018-05-31T07:20:41.665Z,564
2018-05-31T07:21:41.454Z,568
2018-05-31T07:22:41.713Z,576
2018-05-31T07:23:41.458Z,580
2018-05-31T07:24:41.755Z,588
2018-05-31T07:25:41.790Z,596
2018-05-31T07:26:41.805Z,600
2018-05-31T07:27:41.579Z,604
2018-05-31T07:28:41.872Z,612
2018-05-31T07:29:41.618Z,612
2018-05-31T07:30:41.361Z,612
2018-05-31T07:31:41.935Z,608
2018-05-31T07:32:41.983Z,612
2018-05-31T07:33:41.710Z,616
2018-05-31T07:34:41.753Z,620
2018-05-31T07:35:41.478Z,624
2018-05-31T07:36:41.782Z,632
2018-05-31T07:37:42.096Z,632
2018-05-31T07:38:41.703Z,636
2018-05-31T07:39:42.131Z,644
2018-05-31T07:40:42.139Z,648
2018-05-31T07:41:42.214Z,648
2018-05-31T07:42:42.224Z,656
2018-05-31T07:43:41.938Z,656
2018-05-31T07:44:42.264Z,660
2018-05-31T07:45:42.041Z,664
2018-05-31T07:46:42.047Z,668
2018-05-31T07:47:42.056Z,672
2018-05-31T07:48:42.089Z,676
2018-05-31T07:49:41.857Z,676
2018-05-31T07:50:41.589Z,680
2018-05-31T07:51:42.175Z,684
2018-05-31T07:52:42.207Z,692
2018-05-31T07:53:42.531Z,700
2018-05-31T07:54:41.702Z,708
2018-05-31T07:55:42.569Z,716
2018-05-31T07:56:42.601Z,716
2018-05-31T07:57:42.060Z,720
2018-05-31T07:58:42.606Z,728
2018-05-31T07:59:42.648Z,732
2018-05-31T08:00:42.425Z,736
2018-05-31T08:01:42.715Z,740
2018-05-31T08:02:42.460Z,744
2018-05-31T08:03:42.539Z,752
2018-05-31T08:04:42.523Z,756
2018-05-31T08:05:42.639Z,760
2018-05-31T08:06:42.295Z,768
2018-05-31T08:07:42.830Z,772
2018-05-31T08:08:42.873Z,776
2018-05-31T08:09:42.914Z,784
2018-05-31T08:10:42.951Z,796
2018-05-31T08:11:42.693Z,800
2018-05-31T08:12:42.988Z,800
2018-05-31T08:13:43.008Z,808
2018-05-31T08:14:42.772Z,820
2018-05-31T08:15:43.063Z,820
2018-05-31T08:16:43.123Z,828
2018-05-31T08:17:43.104Z,832
2018-05-31T08:18:43.149Z,844
2018-05-31T08:19:43.166Z,856
2018-05-31T08:20:42.730Z,860
2018-05-31T08:21:42.967Z,864
2018-05-31T08:22:43.252Z,864
2018-05-31T08:23:42.985Z,872
2018-05-31T08:24:43.030Z,888
2018-05-31T08:25:43.332Z,904
2018-05-31T08:26:43.090Z,924
2018-05-31T08:27:42.847Z,928
2018-05-31T08:28:43.413Z,916
2018-05-31T08:29:43.163Z,920
2018-05-31T08:30:43.224Z,924
2018-05-31T08:31:44.073Z,936
2018-05-31T08:32:43.561Z,952
2018-05-31T08:33:43.552Z,960
2018-05-31T08:34:43.636Z,964
2018-05-31T08:35:43.591Z,968
2018-05-31T08:36:43.093Z,964
2018-05-31T08:37:43.686Z,972
2018-05-31T08:38:43.706Z,988
2018-05-31T08:39:43.702Z,1004
2018-05-31T08:40:43.447Z,1032
2018-05-31T08:41:43.510Z,1036
2018-05-31T08:42:43.244Z,1028
2018-05-31T08:43:43.805Z,1016
2018-05-31T08:44:43.595Z,1032
2018-05-31T08:45:43.923Z,1056
2018-05-31T08:46:43.893Z,1084
2018-05-31T08:47:43.660Z,1068
2018-05-31T08:48:43.686Z,1084
2018-05-31T08:49:43.712Z,1096
2018-05-31T08:50:43.467Z,1116
2018-05-31T08:51:43.760Z,1124
2018-05-31T08:52:43.815Z,1132
2018-05-31T08:53:43.819Z,1128
2018-05-31T08:54:43.877Z,1132
2018-05-31T08:55:44.166Z,1156
2018-05-31T08:56:43.906Z,1180
2018-05-31T08:57:44.204Z,1172
2018-05-31T08:58:44.229Z,1176
2018-05-31T08:59:44.249Z,1180
2018-05-31T09:00:44.311Z,1152
2018-05-31T09:01:44.038Z,1156
2018-05-31T09:02:43.848Z,1164
2018-05-31T09:03:44.382Z,1164
2018-05-31T09:04:44.205Z,1148
2018-05-31T09:05:44.445Z,1180
2018-05-31T09:06:44.455Z,1204
2018-05-31T09:07:44.502Z,1216
2018-05-31T09:08:44.236Z,1248
2018-05-31T09:09:43.991Z,1236
2018-05-31T09:10:44.577Z,1228
2018-05-31T09:11:44.338Z,1240
2018-05-31T09:12:44.360Z,1240
2018-05-31T09:13:44.418Z,1256
2018-05-31T09:14:44.745Z,1252
2018-05-31T09:15:44.442Z,1276
2018-05-31T09:16:44.225Z,1296
2018-05-31T09:17:44.508Z,1292
2018-05-31T09:18:44.268Z,1312
2018-05-31T09:19:44.580Z,1360
2018-05-31T09:20:44.330Z,1404
2018-05-31T09:21:44.886Z,1424
2018-05-31T09:22:44.946Z,1416
2018-05-31T09:23:44.399Z,1388
2018-05-31T09:24:45.040Z,1388
2018-05-31T09:25:44.748Z,1376
2018-05-31T09:26:44.493Z,1380
2018-05-31T09:27:44.793Z,1396
2018-05-31T09:28:45.211Z,1408
2018-05-31T09:29:44.874Z,1436
2018-05-31T09:30:45.179Z,1468
2018-05-31T09:31:44.654Z,1492
2018-05-31T09:32:44.947Z,1492
2018-05-31T09:33:44.983Z,1476
2018-05-31T09:34:45.055Z,1492
2018-05-31T09:35:45.303Z,1500
2018-05-31T09:36:44.788Z,1516
2018-05-31T09:37:45.392Z,1484
2018-05-31T09:38:45.399Z,1496
2018-05-31T09:39:45.427Z,1512
2018-05-31T09:40:45.471Z,1516
2018-05-31T09:41:45.498Z,1524
2018-05-31T09:42:45.251Z,1556
2018-05-31T09:43:45.524Z,1584
2018-05-31T09:44:45.338Z,1608
2018-05-31T09:45:45.630Z,1620
2018-05-31T09:46:45.740Z,1596
2018-05-31T09:47:45.414Z,1560
2018-05-31T09:48:45.153Z,1612
2018-05-31T09:49:45.707Z,1672
2018-05-31T09:50:45.249Z,1708
2018-05-31T09:51:45.779Z,1708
2018-05-31T09:52:45.583Z,1644
2018-05-31T09:53:45.611Z,1580
2018-05-31T09:54:45.625Z,1620
2018-05-31T09:55:45.925Z,1672
2018-05-31T09:56:45.678Z,1788
2018-05-31T09:57:45.705Z,1832
2018-05-31T09:58:45.993Z,1832
2018-05-31T09:59:45.768Z,1860
2018-05-31T10:00:46.046Z,1868
2018-05-31T10:01:46.101Z,1884
2018-05-31T10:02:45.602Z,1936
2018-05-31T10:03:45.599Z,1980
2018-05-31T10:04:46.183Z,1940
2018-05-31T10:05:45.961Z,1924
2018-05-31T10:06:46.263Z,1940
2018-05-31T10:07:46.265Z,1936
2018-05-31T10:08:46.309Z,1948
2018-05-31T10:09:46.356Z,1956
2018-05-31T10:10:46.420Z,1956
2018-05-31T10:11:46.403Z,1960
2018-05-31T10:12:46.440Z,1956
2018-05-31T10:13:46.499Z,1980
2018-05-31T10:14:46.496Z,1988
2018-05-31T10:15:46.317Z,1976
2018-05-31T10:16:46.579Z,1976
2018-05-31T10:17:46.341Z,1996
2018-05-31T10:18:46.627Z,2008
2018-05-31T10:19:46.660Z,2008
2018-05-31T10:20:46.140Z,2024
2018-05-31T10:21:46.707Z,2124
2018-05-31T10:22:46.490Z,2200
2018-05-31T10:23:46.775Z,2260
2018-05-31T10:24:46.531Z,2300
2018-05-31T10:25:46.607Z,2328
2018-05-31T10:26:46.899Z,2324
2018-05-31T10:27:46.918Z,2248
2018-05-31T10:28:46.965Z,2216
2018-05-31T10:29:47.019Z,2212
2018-05-31T10:30:46.805Z,2240
2018-05-31T10:31:47.083Z,2248
2018-05-31T10:32:47.075Z,2224
2018-05-31T10:33:46.881Z,2184
2018-05-31T10:34:46.882Z,2220
2018-05-31T10:35:47.185Z,2244
2018-05-31T10:36:47.247Z,2292
2018-05-31T10:37:47.228Z,2328
2018-05-31T10:38:47.285Z,2360
2018-05-31T10:39:47.067Z,2368
2018-05-31T10:40:47.348Z,2360
2018-05-31T10:41:47.387Z,2372
2018-05-31T10:42:47.391Z,2396
2018-05-31T10:43:47.163Z,2360
2018-05-31T10:44:47.459Z,2376
2018-05-31T10:45:47.250Z,2412
2018-05-31T10:46:47.552Z,2444
2018-05-31T10:47:47.290Z,2496
2018-05-31T10:48:47.589Z,2544
2018-05-31T10:49:47.365Z,2556
2018-05-31T10:50:47.692Z,2568
2018-05-31T10:51:47.429Z,2560
2018-05-31T10:52:47.760Z,2576
2018-05-31T10:53:47.613Z,2608
2018-05-31T10:54:47.802Z,2660
2018-05-31T10:55:47.569Z,2716
2018-05-31T10:56:47.872Z,2748
2018-05-31T10:57:47.387Z,2720
2018-05-31T10:58:47.679Z,2720
2018-05-31T10:59:47.708Z,2660
2018-05-31T11:00:48.037Z,2616
2018-05-31T11:01:47.797Z,2564
2018-05-31T11:02:47.518Z,2652
2018-05-31T11:03:48.119Z,2776
2018-05-31T11:04:47.615Z,2852
2018-05-31T11:05:48.202Z,2776
2018-05-31T11:06:47.924Z,2844
2018-05-31T11:07:47.972Z,2848
2018-05-31T11:08:48.420Z,3004
2018-05-31T11:09:48.063Z,3076
2018-05-31T11:10:48.084Z,3144
2018-05-31T11:11:48.378Z,3172
2018-05-31T11:12:48.426Z,3228
2018-05-31T11:13:48.453Z,3248
2018-05-31T11:14:48.240Z,3268
2018-05-31T11:15:48.504Z,3324
2018-05-31T11:16:48.619Z,3288
2018-05-31T11:17:48.593Z,3256
2018-05-31T11:18:48.348Z,3244
2018-05-31T11:19:48.653Z,3104
2018-05-31T11:20:48.755Z,3268
2018-05-31T11:21:48.930Z,3252
2018-05-31T11:22:48.777Z,3160
2018-05-31T11:23:48.528Z,3212
2018-05-31T11:24:48.838Z,3300
2018-05-31T11:25:48.844Z,3352
2018-05-31T11:26:48.898Z,3368
2018-05-31T11:27:48.962Z,3340
2018-05-31T11:28:48.972Z,3420
2018-05-31T11:29:48.975Z,3516
2018-05-31T11:30:49.053Z,3664
2018-05-31T11:31:48.812Z,3088
2018-05-31T11:32:48.824Z,2620
2018-05-31T11:33:49.141Z,3180
2018-05-31T11:34:48.760Z,3680
2018-05-31T11:35:49.240Z,3628
2018-05-31T11:36:49.004Z,3596
2018-05-31T11:37:49.282Z,3580
2018-05-31T11:38:49.310Z,3504
2018-05-31T11:39:49.369Z,2304
2018-05-31T11:40:49.109Z,2428
2018-05-31T11:41:49.557Z,2580
2018-05-31T11:42:49.213Z,2320
2018-05-31T11:43:49.531Z,2276
2018-05-31T11:44:48.993Z,2316
2018-05-31T11:45:49.084Z,2392
2018-05-31T11:46:49.309Z,3656
2018-05-31T11:47:49.379Z,4236
2018-05-31T11:48:49.691Z,3140
2018-05-31T11:49:49.711Z,4180
2018-05-31T11:50:49.499Z,3796
2018-05-31T11:51:49.773Z,4028
2018-05-31T11:52:49.571Z,4012
2018-05-31T11:53:49.595Z,4044
2018-05-31T11:54:49.911Z,4092
2018-05-31T11:55:49.634Z,4104
2018-05-31T11:56:49.695Z,4168
2018-05-31T11:57:49.725Z,3960
2018-05-31T11:58:50.023Z,4232
2018-05-31T11:59:50.090Z,4232
2018-05-31T12:00:50.141Z,4188
2018-05-31T12:01:50.419Z,4164
2018-05-31T12:02:49.917Z,4152
2018-05-31T12:03:50.150Z,4080
2018-05-31T12:04:50.260Z,4260
2018-05-31T12:05:50.030Z,4404
2018-05-31T12:06:49.774Z,4480
2018-05-31T12:07:50.093Z,4456
2018-05-31T12:08:50.124Z,4544
2018-05-31T12:09:50.178Z,4800
2018-05-31T12:10:50.691Z,5036
2018-05-31T12:11:50.510Z,5256
2018-05-31T12:12:50.269Z,5372
2018-05-31T12:13:50.328Z,4984
2018-05-31T12:14:50.086Z,4424
2018-05-31T12:15:50.668Z,3336
2018-05-31T12:16:50.433Z,2856
2018-05-31T12:17:50.449Z,2828
2018-05-31T12:18:50.531Z,2720
2018-05-31T12:19:50.828Z,2436
2018-05-31T12:20:50.841Z,2116
2018-05-31T12:21:50.865Z,1952
2018-05-31T12:22:50.628Z,1864
2018-05-31T12:23:50.684Z,1968
2018-05-31T12:24:50.979Z,1892
2018-05-31T12:25:51.035Z,1956
2018-05-31T12:26:50.504Z,1948
2018-05-31T12:27:50.821Z,1888
2018-05-31T12:28:51.135Z,1836
2018-05-31T12:29:50.877Z,3676
2018-05-31T12:30:51.190Z,2612
2018-05-31T12:31:50.976Z,2928
2018-05-31T12:32:51.299Z,2920
2018-05-31T12:33:51.287Z,2600
2018-05-31T12:34:51.073Z,2436
2018-05-31T12:35:51.409Z,2532
2018-05-31T12:36:50.865Z,2588
2018-05-31T12:37:51.618Z,2760
2018-05-31T12:38:51.238Z,3848
2018-05-31T12:39:51.565Z,4584
2018-05-31T12:40:51.314Z,4652
2018-05-31T12:41:51.071Z,4660
2018-05-31T12:42:51.151Z,4732
2018-05-31T12:43:51.682Z,4812
2018-05-31T12:44:51.464Z,4652
2018-05-31T12:45:51.471Z,2704
2018-05-31T12:46:51.806Z,2220
2018-05-31T12:47:51.559Z,2116
2018-05-31T12:48:51.594Z,2304
2018-05-31T12:49:51.640Z,1960
2018-05-31T12:50:51.653Z,1848
2018-05-31T12:51:51.688Z,2240
2018-05-31T12:52:52.041Z,4180
2018-05-31T12:53:52.275Z,4428
2018-05-31T12:54:51.801Z,4468
2018-05-31T12:55:52.115Z,4504
2018-05-31T12:56:52.143Z,4504
2018-05-31T12:57:51.893Z,4544
2018-05-31T12:58:52.415Z,4588
2018-05-31T12:59:52.275Z,4596
2018-05-31T13:00:52.316Z,4512
2018-05-31T13:01:52.356Z,4444
2018-05-31T13:02:52.377Z,4384
2018-05-31T13:03:52.163Z,4332
2018-05-31T13:04:52.184Z,4436
2018-05-31T13:05:52.495Z,4388
2018-05-31T13:06:52.521Z,4388
2018-05-31T13:07:52.278Z,4380
2018-05-31T13:08:52.086Z,4344
2018-05-31T13:09:52.370Z,4412
2018-05-31T13:10:52.118Z,4516
2018-05-31T13:11:52.417Z,4660
2018-05-31T13:12:52.493Z,4704
2018-05-31T13:13:52.790Z,4744
2018-05-31T13:14:52.799Z,4748
2018-05-31T13:15:52.859Z,4772
2018-05-31T13:16:52.656Z,4780
2018-05-31T13:17:52.644Z,4828
2018-05-31T13:18:52.483Z,4856
2018-05-31T13:19:52.746Z,4888
2018-05-31T13:20:52.786Z,4928
2018-05-31T13:21:53.110Z,4964
2018-05-31T13:22:53.120Z,4940
2018-05-31T13:23:52.635Z,4960
2018-05-31T13:24:53.208Z,4944
2018-05-31T13:25:53.269Z,4976
2018-05-31T13:26:53.020Z,5000
2018-05-31T13:27:53.325Z,4996
2018-05-31T13:28:53.072Z,4984
2018-05-31T13:29:53.395Z,5036
2018-05-31T13:30:53.167Z,5072
2018-05-31T13:31:53.182Z,5120
2018-05-31T13:32:53.508Z,5112
2018-05-31T13:33:53.000Z,5108
2018-05-31T13:34:53.318Z,5160
2018-05-31T13:35:53.616Z,5172
2018-05-31T13:36:53.408Z,5140
2018-05-31T13:37:53.686Z,5100
2018-05-31T13:38:53.450Z,5100
2018-05-31T13:39:53.509Z,5256
2018-05-31T13:40:53.555Z,5400
2018-05-31T13:41:53.826Z,5440
2018-05-31T13:42:53.895Z,5460
2018-05-31T13:43:53.376Z,5484
2018-05-31T13:44:53.440Z,5480
2018-05-31T13:45:53.741Z,5532
2018-05-31T13:46:53.768Z,5560
2018-05-31T13:47:53.816Z,5568
2018-05-31T13:48:54.114Z,5568